Ducos, Argentina
Current Conditions -  °F | °C
As of 10:00 PM on Thursday 18 Dec 2014 (Local Time) from SAZM Reporting Station
Clear Clear  
Wind Chill: 73°   Ceiling: Unl
Heat Index: 73°   Visibility: 6mi
Dew Point: 64°   Wind: 10mph
Humidity: 73%   Direction: 20°NNE
Pressure: 29.59"   Gusts: NA
Location:  37.47°S, 62.42°W
Report Text: SAZM 190100Z 02009KT CAVOK 23/18 Q1002
Loading
Personal Weather Stations






























Interactive Weather Map New forecast layout! Learn more

10-Day Weather Forecast

Advertisements
Track Severe Weather on mobile